createdAt,value
2024-03-31T00:00:35.500Z,101243.91
2024-03-31T00:03:25.249Z,101240.70
2024-03-31T00:05:58.602Z,101239.60
2024-03-31T00:08:28.349Z,101239.78
2024-03-31T00:11:02.406Z,101232.55
2024-03-31T00:13:31.977Z,101235.39
2024-03-31T00:16:01.607Z,101237.54
2024-03-31T00:18:31.222Z,101234.05
2024-03-31T00:21:01.177Z,101236.29
2024-03-31T00:23:30.806Z,101235.89
2024-03-31T00:26:01.501Z,101232.77
2024-03-31T00:28:31.108Z,101232.51
2024-03-31T00:31:01.602Z,101231.73
2024-03-31T00:33:31.050Z,101229.25
2024-03-31T00:36:00.712Z,101223.66
2024-03-31T00:38:30.431Z,101228.56
2024-03-31T00:41:00.190Z,101228.50
2024-03-31T00:43:29.888Z,101228.30
2024-03-31T00:45:59.550Z,101225.52
2024-03-31T00:48:29.268Z,101221.31
2024-03-31T00:50:58.820Z,101221.45
2024-03-31T00:53:29.255Z,101220.13
2024-03-31T00:56:02.016Z,101220.83
2024-03-31T00:58:31.790Z,101224.03
2024-03-31T01:01:01.510Z,101227.81
2024-03-31T01:03:32.565Z,101231.81
2024-03-31T01:06:22.928Z,101228.34
2024-03-31T01:08:54.252Z,101228.55
2024-03-31T01:11:25.138Z,101231.62
2024-03-31T01:13:56.884Z,101231.76
2024-03-31T01:16:27.734Z,101230.20
2024-03-31T01:18:57.349Z,101226.74
2024-03-31T01:21:29.318Z,101225.88
2024-03-31T01:24:01.153Z,101229.77
2024-03-31T01:26:31.640Z,101231.26
2024-03-31T01:29:01.249Z,101229.94
2024-03-31T01:31:31.338Z,101229.33
2024-03-31T01:34:01.493Z,101228.94
2024-03-31T01:36:30.945Z,101227.48
2024-03-31T01:39:05.369Z,101226.29
2024-03-31T01:41:37.529Z,101227.59
2024-03-31T01:44:07.400Z,101227.48
2024-03-31T01:46:36.929Z,101231.02
2024-03-31T01:49:06.487Z,101231.81
2024-03-31T01:51:36.543Z,101232.96
2024-03-31T01:54:06.929Z,101234.42
2024-03-31T01:56:38.637Z,101242.12
2024-03-31T01:59:08.349Z,101247.41
2024-03-31T02:01:37.936Z,101243.48
2024-03-31T02:04:07.597Z,101239.42
2024-03-31T02:06:37.124Z,101248.84
2024-03-31T02:09:06.565Z,101246.58
2024-03-31T02:11:36.167Z,101248.88
2024-03-31T02:14:05.751Z,101252.44
2024-03-31T02:16:38.439Z,101250.12
2024-03-31T02:19:07.890Z,101244.52
2024-03-31T02:21:37.550Z,101242.50
2024-03-31T02:24:07.600Z,101245.55
2024-03-31T02:26:37.172Z,101244.02
2024-03-31T02:29:06.615Z,101249.47
2024-03-31T02:31:36.165Z,101245.11
2024-03-31T02:34:06.779Z,101239.40
2024-03-31T02:36:37.091Z,101238.35
2024-03-31T02:39:07.841Z,101237.11
2024-03-31T02:41:37.811Z,101239.94
2024-03-31T02:44:07.266Z,101244.08
2024-03-31T02:46:36.888Z,101249.55
2024-03-31T02:49:07.258Z,101245.02
2024-03-31T02:51:37.338Z,101248.34
2024-03-31T02:54:07.237Z,101249.10
2024-03-31T02:56:37.674Z,101248.06
2024-03-31T02:59:07.464Z,101253.63
2024-03-31T03:01:37.342Z,101259.98
2024-03-31T03:04:06.934Z,101260.13
2024-03-31T03:06:36.549Z,101259.83
2024-03-31T03:09:07.493Z,101257.66
2024-03-31T03:11:37.125Z,101252.55
2024-03-31T03:14:06.591Z,101259.40
2024-03-31T03:16:36.250Z,101260.95
2024-03-31T03:19:07.236Z,101260.88
2024-03-31T03:21:36.962Z,101266.31
2024-03-31T03:24:07.502Z,101266.10
2024-03-31T03:26:38.222Z,101266.69
2024-03-31T03:29:09.044Z,101266.80
2024-03-31T03:31:38.555Z,101271.10
2024-03-31T03:34:09.846Z,101267.52
2024-03-31T03:36:39.551Z,101268.55
2024-03-31T03:39:09.158Z,101278.29
2024-03-31T03:41:39.135Z,101278.73
2024-03-31T03:44:08.748Z,101281.30
2024-03-31T03:46:38.634Z,101281.48
2024-03-31T03:49:08.366Z,101283.83
2024-03-31T03:51:40.083Z,101283.41
2024-03-31T03:54:09.727Z,101285.91
2024-03-31T03:56:42.349Z,101293.00
2024-03-31T03:59:14.093Z,101294.78
2024-03-31T04:01:43.966Z,101291.48
2024-03-31T04:04:13.594Z,101295.83
2024-03-31T04:06:44.942Z,101298.18
2024-03-31T04:09:14.801Z,101303.52
2024-03-31T04:11:44.297Z,101304.91
2024-03-31T04:14:13.876Z,101305.84
2024-03-31T04:16:43.575Z,101304.16
2024-03-31T04:19:13.086Z,101302.24
2024-03-31T04:21:42.775Z,101305.44
2024-03-31T04:24:12.342Z,101305.90
2024-03-31T04:26:41.918Z,101311.68
2024-03-31T04:29:11.421Z,101311.57
2024-03-31T04:31:58.310Z,101311.80
2024-03-31T04:34:31.842Z,101310.64
2024-03-31T04:37:02.448Z,101307.73
2024-03-31T04:39:32.049Z,101310.16
2024-03-31T04:42:01.754Z,101308.81
2024-03-31T04:44:31.335Z,101309.95
2024-03-31T04:47:01.654Z,101309.07
2024-03-31T04:49:31.647Z,101309.30
2024-03-31T04:52:02.174Z,101308.42
2024-03-31T04:54:33.449Z,101315.17
2024-03-31T04:57:03.366Z,101316.48
2024-03-31T04:59:33.080Z,101316.41
2024-03-31T05:02:02.719Z,101314.90
2024-03-31T05:04:33.968Z,101310.89
2024-03-31T05:07:03.507Z,101308.96
2024-03-31T05:09:35.865Z,101312.60
2024-03-31T05:12:05.743Z,101316.14
2024-03-31T05:14:35.514Z,101313.38
2024-03-31T05:17:05.826Z,101308.02
2024-03-31T05:19:35.630Z,101306.59
2024-03-31T05:22:06.833Z,101305.24
2024-03-31T05:24:37.641Z,101302.30
2024-03-31T05:27:07.517Z,101306.66
2024-03-31T05:29:37.014Z,101301.23
2024-03-31T05:32:09.154Z,101303.51
2024-03-31T05:34:49.129Z,101296.77
2024-03-31T05:37:18.938Z,101294.33
2024-03-31T05:39:48.630Z,101302.96
2024-03-31T05:42:19.780Z,101311.02
2024-03-31T05:44:50.798Z,101311.33
2024-03-31T05:47:21.568Z,101305.77
2024-03-31T05:49:51.793Z,101305.61
2024-03-31T05:52:23.906Z,101306.72
2024-03-31T05:54:53.863Z,101308.31
2024-03-31T05:57:23.801Z,101310.55
2024-03-31T05:59:55.452Z,101313.88
2024-03-31T06:02:25.566Z,101316.50
2024-03-31T06:04:59.067Z,101321.11
2024-03-31T06:07:31.086Z,101328.59
2024-03-31T06:10:01.398Z,101338.13
2024-03-31T06:12:32.636Z,101338.63
2024-03-31T06:15:04.479Z,101339.98
2024-03-31T06:17:36.404Z,101343.30
2024-03-31T06:20:10.227Z,101347.09
2024-03-31T06:22:43.673Z,101351.50
2024-03-31T06:25:13.782Z,101355.03
2024-03-31T06:27:43.586Z,101352.98
2024-03-31T06:30:13.388Z,101352.17
2024-03-31T06:32:44.565Z,101353.09
2024-03-31T06:35:14.466Z,101354.92
2024-03-31T06:37:44.104Z,101357.27
2024-03-31T06:40:14.206Z,101359.65
2024-03-31T06:42:43.842Z,101362.65
2024-03-31T06:45:17.210Z,101358.81
2024-03-31T06:47:47.027Z,101353.33
2024-03-31T06:50:17.195Z,101352.39
2024-03-31T06:52:46.854Z,101352.46
2024-03-31T06:55:17.273Z,101351.46
2024-03-31T06:57:47.460Z,101358.14
2024-03-31T07:00:18.308Z,101357.83
2024-03-31T07:02:51.332Z,101363.21
2024-03-31T07:05:22.658Z,101366.59
2024-03-31T07:07:53.297Z,101367.28
2024-03-31T07:10:25.210Z,101368.90
2024-03-31T07:12:57.384Z,101368.30
2024-03-31T07:15:27.440Z,101369.02
2024-03-31T07:18:11.377Z,101372.85
2024-03-31T07:20:42.008Z,101376.42
2024-03-31T07:23:12.249Z,101379.90
2024-03-31T07:25:42.417Z,101382.99
2024-03-31T07:28:15.887Z,101392.20
2024-03-31T07:30:47.141Z,101393.00
2024-03-31T07:33:18.085Z,101390.05
2024-03-31T07:35:49.664Z,101388.66
2024-03-31T07:38:22.510Z,101389.66
2024-03-31T07:40:52.873Z,101391.18
2024-03-31T07:43:25.386Z,101393.67
2024-03-31T07:45:56.430Z,101393.60
2024-03-31T07:48:26.789Z,101394.67
2024-03-31T07:50:56.466Z,101389.58
2024-03-31T07:53:27.977Z,101388.23
2024-03-31T07:56:10.823Z,101383.80
2024-03-31T07:58:41.441Z,101385.95
2024-03-31T08:01:12.993Z,101384.54
2024-03-31T08:03:44.794Z,101383.41
2024-03-31T08:06:15.029Z,101386.86
2024-03-31T08:09:36.993Z,101383.96
2024-03-31T08:12:11.058Z,101385.83
2024-03-31T08:14:41.971Z,101386.02
2024-03-31T08:17:11.801Z,101388.54
2024-03-31T08:19:41.289Z,101387.55
2024-03-31T08:22:12.465Z,101388.62
2024-03-31T08:24:42.649Z,101390.69
2024-03-31T08:27:14.961Z,101386.84
2024-03-31T08:29:44.625Z,101385.77
2024-03-31T08:32:15.058Z,101388.91
2024-03-31T08:34:47.899Z,101387.64
2024-03-31T08:37:23.703Z,101386.41
2024-03-31T08:39:53.316Z,101385.23
2024-03-31T08:42:44.865Z,101383.44
2024-03-31T08:45:14.953Z,101379.27
2024-03-31T08:47:46.059Z,101376.73
2024-03-31T08:50:15.699Z,101380.65
2024-03-31T08:52:45.200Z,101383.89
2024-03-31T08:55:15.175Z,101383.20
2024-03-31T08:57:46.017Z,101385.47
2024-03-31T09:00:55.996Z,101382.70
2024-03-31T09:03:28.629Z,101379.48
2024-03-31T09:06:00.185Z,101378.95
2024-03-31T09:08:39.866Z,101376.98
2024-03-31T09:11:11.736Z,101373.45
2024-03-31T09:13:43.959Z,101371.75
2024-03-31T09:16:13.890Z,101367.23
2024-03-31T09:18:45.598Z,101366.12
2024-03-31T09:21:15.179Z,101361.08
2024-03-31T09:23:44.926Z,101358.96
2024-03-31T09:26:15.952Z,101355.95
2024-03-31T09:28:46.045Z,101348.14
2024-03-31T09:31:22.519Z,101351.79
2024-03-31T09:33:53.497Z,101350.30
2024-03-31T09:36:23.449Z,101339.52
2024-03-31T09:38:55.622Z,101340.19
2024-03-31T09:41:39.866Z,101336.30
2024-03-31T09:44:09.435Z,101335.86
2024-03-31T09:46:39.187Z,101336.13
2024-03-31T09:49:15.081Z,101341.10
2024-03-31T09:51:51.099Z,101340.91
2024-03-31T09:54:35.562Z,101340.22
2024-03-31T09:57:13.831Z,101339.06
2024-03-31T09:59:58.986Z,101328.92
2024-03-31T10:02:34.158Z,101320.92
2024-03-31T10:05:45.521Z,101319.23
2024-03-31T10:08:35.306Z,101314.57
2024-03-31T10:11:06.676Z,101313.45
2024-03-31T10:13:38.614Z,101309.36
2024-03-31T10:16:10.802Z,101305.66
2024-03-31T10:18:41.927Z,101297.83
2024-03-31T10:21:13.251Z,101299.98
2024-03-31T10:23:48.088Z,101298.71
2024-03-31T10:26:18.792Z,101299.60
2024-03-31T10:28:51.082Z,101298.31
2024-03-31T10:31:21.905Z,101301.00
2024-03-31T10:33:51.835Z,101299.14
2024-03-31T10:36:22.713Z,101297.55
2024-03-31T10:38:52.335Z,101299.24
2024-03-31T10:41:22.898Z,101296.84
2024-03-31T10:43:57.773Z,101290.23
2024-03-31T10:46:28.034Z,101293.19
2024-03-31T10:48:58.561Z,101291.21
2024-03-31T10:51:29.245Z,101292.65
2024-03-31T10:54:20.768Z,101291.64
2024-03-31T10:57:00.218Z,101289.87
2024-03-31T10:59:32.304Z,101287.02
2024-03-31T11:02:26.343Z,101277.10
2024-03-31T11:05:17.915Z,101276.06
2024-03-31T11:08:03.087Z,101274.86
2024-03-31T11:11:14.193Z,101275.81
2024-03-31T11:14:19.192Z,101276.02
2024-03-31T11:16:50.695Z,101269.88
2024-03-31T11:19:23.427Z,101271.89
2024-03-31T11:22:07.421Z,101269.54
2024-03-31T11:24:39.464Z,101263.22
2024-03-31T11:27:10.778Z,101256.28
2024-03-31T11:29:43.304Z,101255.44
2024-03-31T11:32:34.858Z,101258.59
2024-03-31T11:35:43.406Z,101258.16
2024-03-31T11:38:24.638Z,101255.27
2024-03-31T11:40:55.024Z,101252.92
2024-03-31T11:43:46.813Z,101249.86
2024-03-31T11:46:23.290Z,101244.77
2024-03-31T11:49:00.733Z,101239.91
2024-03-31T11:51:39.375Z,101237.98
2024-03-31T11:54:11.256Z,101233.58
2024-03-31T11:56:43.664Z,101230.45
2024-03-31T11:59:22.003Z,101232.00
2024-03-31T12:02:03.123Z,101230.11
2024-03-31T12:04:38.053Z,101229.73
2024-03-31T12:07:08.913Z,101225.17
2024-03-31T12:09:43.985Z,101218.58
2024-03-31T12:12:37.637Z,101214.83
2024-03-31T12:15:16.050Z,101216.40
2024-03-31T12:18:03.444Z,101214.41
2024-03-31T12:20:38.205Z,101213.41
2024-03-31T12:23:10.426Z,101210.27
2024-03-31T12:25:44.832Z,101207.94
2024-03-31T12:28:32.938Z,101203.38
2024-03-31T12:31:21.762Z,101193.14
2024-03-31T12:35:25.856Z,101185.67
2024-03-31T12:46:40.457Z,101170.52
2024-03-31T12:49:56.637Z,101166.52
2024-03-31T12:52:48.198Z,101159.94
2024-03-31T12:55:29.318Z,101156.27
2024-03-31T12:58:04.205Z,101155.94
2024-03-31T13:00:44.859Z,101154.83
2024-03-31T13:03:56.897Z,101151.71
2024-03-31T13:06:44.019Z,101141.45
2024-03-31T13:09:24.821Z,101136.86
2024-03-31T13:11:55.781Z,101132.05
2024-03-31T13:14:28.077Z,101129.18
2024-03-31T13:17:01.378Z,101130.05
2024-03-31T13:19:32.365Z,101131.64
2024-03-31T13:22:06.144Z,101126.81
2024-03-31T13:24:40.585Z,101126.20
2024-03-31T13:27:12.989Z,101125.37
2024-03-31T13:29:46.954Z,101125.92
2024-03-31T13:32:17.775Z,101121.25
2024-03-31T13:34:47.290Z,101121.88
2024-03-31T13:37:16.918Z,101117.49
2024-03-31T13:39:46.685Z,101116.23
2024-03-31T13:42:16.586Z,101108.47
2024-03-31T13:44:46.569Z,101104.01
2024-03-31T13:47:17.445Z,101105.45
2024-03-31T13:49:47.472Z,101105.31
2024-03-31T13:52:17.911Z,101107.61
2024-03-31T13:54:48.625Z,101104.20
2024-03-31T13:57:18.334Z,101102.86
2024-03-31T13:59:47.969Z,101101.64
2024-03-31T14:02:18.446Z,101101.89
2024-03-31T14:04:48.368Z,101106.16
2024-03-31T14:07:18.931Z,101104.86
2024-03-31T14:09:48.523Z,101107.77
2024-03-31T14:12:20.248Z,101104.19
2024-03-31T14:14:50.920Z,101104.05
2024-03-31T14:17:20.932Z,101098.16
2024-03-31T14:19:52.711Z,101096.95
2024-03-31T14:22:24.455Z,101098.07
2024-03-31T14:24:54.177Z,101097.31
2024-03-31T14:27:23.725Z,101096.33
2024-03-31T14:29:53.452Z,101098.40
2024-03-31T14:32:22.989Z,101097.16
2024-03-31T14:34:52.740Z,101094.45
2024-03-31T14:37:22.283Z,101093.38
2024-03-31T14:39:52.227Z,101095.45
2024-03-31T14:42:24.670Z,101100.61
2024-03-31T14:44:54.969Z,101100.73
2024-03-31T14:47:28.558Z,101096.05
2024-03-31T14:49:58.382Z,101093.80
2024-03-31T14:52:28.104Z,101094.52
2024-03-31T14:54:57.780Z,101099.13
2024-03-31T14:57:29.278Z,101099.32
2024-03-31T15:00:06.523Z,101103.30
2024-03-31T15:03:02.681Z,101103.46
2024-03-31T15:05:32.730Z,101104.73
2024-03-31T15:08:14.231Z,101104.84
2024-03-31T15:10:54.670Z,101101.46
2024-03-31T15:13:26.976Z,101101.63
2024-03-31T15:16:10.382Z,101101.56
2024-03-31T15:18:53.576Z,101097.41
2024-03-31T15:22:10.877Z,101095.39
2024-03-31T15:24:46.993Z,101102.28
2024-03-31T15:27:45.382Z,101099.70
2024-03-31T15:30:16.386Z,101101.26
2024-03-31T15:32:47.316Z,101101.69
2024-03-31T15:35:19.267Z,101106.75
2024-03-31T15:37:50.900Z,101105.75
2024-03-31T15:40:26.545Z,101104.46
2024-03-31T15:42:57.250Z,101103.09
2024-03-31T15:45:28.445Z,101099.54
2024-03-31T15:47:58.187Z,101096.14
2024-03-31T15:50:29.037Z,101094.75
2024-03-31T15:52:58.505Z,101100.62
2024-03-31T15:55:28.195Z,101101.56
2024-03-31T15:57:57.595Z,101105.68
2024-03-31T16:00:27.812Z,101108.69
2024-03-31T16:02:57.381Z,101105.09
2024-03-31T16:05:28.067Z,101108.60
2024-03-31T16:07:57.437Z,101107.89
2024-03-31T16:10:27.102Z,101107.95
2024-03-31T16:12:56.998Z,101106.48
2024-03-31T16:15:27.188Z,101104.64
2024-03-31T16:17:56.869Z,101102.83
2024-03-31T16:20:26.690Z,101099.14
2024-03-31T16:22:56.284Z,101107.38
2024-03-31T16:25:25.938Z,101111.27
2024-03-31T16:27:55.540Z,101115.81
2024-03-31T16:30:25.212Z,101115.38
2024-03-31T16:32:54.808Z,101117.50
2024-03-31T16:35:24.365Z,101114.06
2024-03-31T16:37:54.530Z,101117.48
2024-03-31T16:40:24.261Z,101112.84
2024-03-31T16:42:55.841Z,101115.61
2024-03-31T16:45:25.512Z,101117.32
2024-03-31T16:47:55.171Z,101121.13
2024-03-31T16:50:26.313Z,101117.39
2024-03-31T16:52:55.852Z,101120.65
2024-03-31T16:55:25.397Z,101114.27
2024-03-31T16:57:55.158Z,101109.01
2024-03-31T17:00:25.218Z,101103.86
2024-03-31T17:02:54.634Z,101107.10
2024-03-31T17:05:24.148Z,101109.28
2024-03-31T17:07:54.750Z,101108.23
2024-03-31T17:10:24.407Z,101110.23
2024-03-31T17:12:53.852Z,101108.77
2024-03-31T17:15:23.349Z,101112.85
2024-03-31T17:17:53.135Z,101110.15
2024-03-31T17:20:22.858Z,101110.60
2024-03-31T17:22:52.297Z,101111.87
2024-03-31T17:25:21.879Z,101112.70
2024-03-31T17:27:51.934Z,101119.98
2024-03-31T17:30:21.363Z,101121.42
2024-03-31T17:32:50.950Z,101123.23
2024-03-31T17:35:20.560Z,101129.91
2024-03-31T17:37:50.110Z,101137.13
2024-03-31T17:40:20.416Z,101148.52
2024-03-31T17:42:49.846Z,101158.20
2024-03-31T17:45:22.719Z,101165.21
2024-03-31T17:47:52.318Z,101170.39
2024-03-31T17:50:21.771Z,101165.34
2024-03-31T17:52:51.131Z,101171.22
2024-03-31T17:55:20.887Z,101172.16
2024-03-31T17:57:50.826Z,101167.69
2024-03-31T18:00:22.793Z,101168.80
2024-03-31T18:02:52.287Z,101172.20
2024-03-31T18:05:21.677Z,101173.79
2024-03-31T18:07:51.278Z,101175.05
2024-03-31T18:10:20.764Z,101177.20
2024-03-31T18:12:50.504Z,101183.09
2024-03-31T18:15:22.011Z,101188.75
2024-03-31T18:17:51.495Z,101187.39
2024-03-31T18:20:22.588Z,101188.86
2024-03-31T18:22:52.389Z,101185.13
2024-03-31T18:25:21.915Z,101180.11
2024-03-31T18:27:51.437Z,101185.52
2024-03-31T18:30:21.076Z,101188.17
2024-03-31T18:32:51.702Z,101187.72
2024-03-31T18:35:21.233Z,101194.42
2024-03-31T18:37:50.949Z,101193.24
2024-03-31T18:40:21.707Z,101190.95
2024-03-31T18:42:51.208Z,101196.16
2024-03-31T18:45:20.665Z,101199.09
2024-03-31T18:47:51.294Z,101199.92
2024-03-31T18:50:21.235Z,101201.59
2024-03-31T18:52:50.728Z,101200.64
2024-03-31T18:55:20.558Z,101203.27
2024-03-31T18:57:50.155Z,101202.77
2024-03-31T19:00:20.004Z,101205.86
2024-03-31T19:02:56.042Z,101204.02
2024-03-31T19:05:25.810Z,101204.18
2024-03-31T19:07:55.226Z,101200.27
2024-03-31T19:10:25.377Z,101199.98
2024-03-31T19:12:55.199Z,101197.95
2024-03-31T19:15:24.661Z,101195.80
2024-03-31T19:17:54.315Z,101192.20
2024-03-31T19:20:23.780Z,101192.10
2024-03-31T19:22:53.605Z,101194.35
2024-03-31T19:25:23.187Z,101187.42
2024-03-31T19:27:54.703Z,101185.55
2024-03-31T19:30:24.777Z,101186.55
2024-03-31T19:32:53.179Z,101186.40
2024-03-31T19:35:22.775Z,101189.98
2024-03-31T19:37:55.646Z,101188.83
2024-03-31T19:40:25.264Z,101186.05
2024-03-31T19:42:54.773Z,101183.52
2024-03-31T19:45:24.527Z,101183.58
2024-03-31T19:47:54.031Z,101184.42
2024-03-31T19:50:23.718Z,101184.63
2024-03-31T19:52:55.894Z,101186.52
2024-03-31T19:55:25.669Z,101192.16
2024-03-31T19:57:58.133Z,101194.42
2024-03-31T20:00:29.439Z,101189.68
2024-03-31T20:02:59.024Z,101189.02
2024-03-31T20:05:29.082Z,101196.91
2024-03-31T20:07:59.031Z,101196.21
2024-03-31T20:10:28.698Z,101202.29
2024-03-31T20:12:59.592Z,101194.48
2024-03-31T20:15:29.104Z,101196.52
2024-03-31T20:17:58.471Z,101195.55
2024-03-31T20:20:27.986Z,101195.20
2024-03-31T20:22:57.703Z,101202.32
2024-03-31T20:25:27.116Z,101204.45
2024-03-31T20:27:56.863Z,101207.02
2024-03-31T20:30:26.526Z,101211.86
2024-03-31T20:32:56.521Z,101208.92
2024-03-31T20:35:26.018Z,101213.23
2024-03-31T20:37:56.510Z,101208.30
2024-03-31T20:40:27.224Z,101216.67
2024-03-31T20:42:56.704Z,101214.64
2024-03-31T20:45:26.180Z,101212.08
2024-03-31T20:47:55.950Z,101209.02
2024-03-31T20:50:25.353Z,101209.48
2024-03-31T20:52:56.232Z,101207.62
2024-03-31T20:55:25.680Z,101216.03
2024-03-31T20:57:55.861Z,101218.21
2024-03-31T21:00:25.680Z,101223.46
2024-03-31T21:02:55.431Z,101220.52
2024-03-31T21:05:24.990Z,101215.95
2024-03-31T21:07:54.407Z,101215.38
2024-03-31T21:10:24.221Z,101218.48
2024-03-31T21:12:53.758Z,101217.77
2024-03-31T21:15:23.224Z,101209.97
2024-03-31T21:17:56.203Z,101206.88
2024-03-31T21:20:25.628Z,101207.55
2024-03-31T21:22:57.535Z,101204.87
2024-03-31T21:25:27.242Z,101204.73
2024-03-31T21:27:56.764Z,101205.88
2024-03-31T21:30:27.668Z,101207.95
2024-03-31T21:32:57.135Z,101204.13
2024-03-31T21:35:33.049Z,101208.70
2024-03-31T21:38:02.582Z,101207.84
2024-03-31T21:40:32.124Z,101205.56
2024-03-31T21:43:01.791Z,101206.84
2024-03-31T21:45:31.286Z,101203.85
2024-03-31T21:48:00.714Z,101204.66
2024-03-31T21:50:30.448Z,101202.33
2024-03-31T21:53:00.054Z,101201.84
2024-03-31T21:55:29.742Z,101200.52
2024-03-31T21:57:59.280Z,101194.31
2024-03-31T22:00:29.789Z,101193.33
2024-03-31T22:02:59.340Z,101194.52
2024-03-31T22:05:28.907Z,101196.49
2024-03-31T22:07:58.397Z,101197.00
2024-03-31T22:10:27.957Z,101196.04
2024-03-31T22:12:59.519Z,101195.69
2024-03-31T22:15:29.704Z,101198.80
2024-03-31T22:17:59.468Z,101196.63
2024-03-31T22:20:30.410Z,101198.13
2024-03-31T22:22:59.919Z,101194.63
2024-03-31T22:25:30.214Z,101194.14
2024-03-31T22:27:59.882Z,101191.30
2024-03-31T22:30:29.220Z,101189.84
2024-03-31T22:32:58.955Z,101189.39
2024-03-31T22:35:28.472Z,101184.71
2024-03-31T22:37:58.570Z,101181.25
2024-03-31T22:40:28.048Z,101181.06
2024-03-31T22:42:57.646Z,101179.17
2024-03-31T22:45:27.327Z,101178.34
2024-03-31T22:47:57.185Z,101180.70
2024-03-31T22:50:26.796Z,101185.64
2024-03-31T22:52:56.444Z,101183.94
2024-03-31T22:55:26.610Z,101184.22
2024-03-31T22:57:57.241Z,101182.23
2024-03-31T23:00:26.707Z,101183.35
2024-03-31T23:02:56.205Z,101173.30
2024-03-31T23:05:25.953Z,101173.30
2024-03-31T23:07:55.436Z,101170.47
2024-03-31T23:10:25.015Z,101171.85
2024-03-31T23:12:54.453Z,101171.73
2024-03-31T23:15:25.312Z,101167.77
2024-03-31T23:17:54.748Z,101169.58
2024-03-31T23:20:25.842Z,101170.27
2024-03-31T23:22:56.639Z,101173.45
2024-03-31T23:25:26.287Z,101169.86
2024-03-31T23:27:55.731Z,101173.97
2024-03-31T23:30:26.682Z,101174.07
2024-03-31T23:32:58.604Z,101170.80
2024-03-31T23:35:28.207Z,101175.29
2024-03-31T23:37:58.692Z,101175.63
2024-03-31T23:40:28.221Z,101172.52
2024-03-31T23:42:57.931Z,101173.94
2024-03-31T23:45:32.136Z,101171.29
2024-03-31T23:48:01.669Z,101166.84
2024-03-31T23:50:31.174Z,101168.21
2024-03-31T23:53:00.697Z,101170.17
2024-03-31T23:55:30.261Z,101167.77
2024-03-31T23:57:59.863Z,101170.05
